createdAt,value
2022-10-02T00:05:43.147Z,12.70
2022-10-02T00:15:48.757Z,12.50
2022-10-02T00:25:58.928Z,12.40
2022-10-02T00:36:18.135Z,12.30
2022-10-02T00:46:42.885Z,12.30
2022-10-02T00:56:54.137Z,12.30
2022-10-02T01:07:01.865Z,12.30
2022-10-02T01:17:08.923Z,12.30
2022-10-02T01:27:13.901Z,12.30
2022-10-02T01:37:17.827Z,12.40
2022-10-02T01:47:33.561Z,12.50
2022-10-02T01:57:50.866Z,12.50
2022-10-02T02:08:10.134Z,12.50
2022-10-02T02:18:19.442Z,12.60
2022-10-02T02:28:31.632Z,12.60
2022-10-02T02:38:41.020Z,12.70
2022-10-02T02:48:52.103Z,12.70
2022-10-02T02:59:01.933Z,12.80
2022-10-02T03:09:14.967Z,12.80
2022-10-02T03:19:41.001Z,12.80
2022-10-02T03:29:51.646Z,12.80
2022-10-02T03:39:59.502Z,12.80
2022-10-02T03:50:05.541Z,13.00
2022-10-02T04:00:14.129Z,13.10
2022-10-02T04:10:36.662Z,13.10
2022-10-02T04:20:47.095Z,13.20
2022-10-02T04:30:55.083Z,13.20
2022-10-02T04:41:23.628Z,13.30
2022-10-02T04:51:51.058Z,13.30
2022-10-02T05:02:17.010Z,13.30
2022-10-02T05:12:53.183Z,13.40
2022-10-02T05:23:20.622Z,13.40
2022-10-02T05:33:48.359Z,13.30
2022-10-02T05:43:59.471Z,13.30
2022-10-02T05:54:16.552Z,13.30
2022-10-02T06:04:28.691Z,13.30
2022-10-02T06:14:40.621Z,13.20
2022-10-02T06:24:50.187Z,13.30
2022-10-02T06:34:56.726Z,13.30
2022-10-02T06:45:11.956Z,13.30
2022-10-02T06:55:33.450Z,13.40
2022-10-02T07:06:15.323Z,13.40
2022-10-02T07:16:47.599Z,13.40
2022-10-02T07:27:00.572Z,13.50
2022-10-02T07:37:19.159Z,13.50
2022-10-02T07:47:42.205Z,13.60
2022-10-02T07:57:58.439Z,13.60
2022-10-02T08:08:12.322Z,13.70
2022-10-02T08:18:40.012Z,13.70
2022-10-02T08:28:52.251Z,13.60
2022-10-02T08:39:13.184Z,13.60
2022-10-02T08:50:22.638Z,13.80
2022-10-02T09:00:40.370Z,13.70
2022-10-02T09:11:24.202Z,13.90
2022-10-02T09:21:56.198Z,13.90
2022-10-02T09:32:57.935Z,13.90
2022-10-02T09:44:23.671Z,14.00
2022-10-02T09:55:06.580Z,14.00
2022-10-02T10:06:17.482Z,14.10
2022-10-02T10:17:19.257Z,14.20
2022-10-02T10:27:49.086Z,14.50
2022-10-02T10:38:39.686Z,14.60
2022-10-02T10:49:15.206Z,14.60
2022-10-02T10:59:53.912Z,14.60
2022-10-02T11:10:31.624Z,14.60
2022-10-02T11:21:05.320Z,14.60
2022-10-02T11:31:48.070Z,14.60
2022-10-02T11:42:27.819Z,14.60
2022-10-02T11:53:16.907Z,14.60
2022-10-02T12:03:30.486Z,14.50
2022-10-02T12:14:03.970Z,14.40
2022-10-02T12:24:37.337Z,14.70
2022-10-02T12:34:55.033Z,14.70
2022-10-02T12:45:28.982Z,14.90
2022-10-02T12:56:01.376Z,15.40
2022-10-02T13:06:34.290Z,15.30
2022-10-02T13:17:10.994Z,15.30
2022-10-02T13:27:31.653Z,15.30
2022-10-02T13:37:53.903Z,15.30
2022-10-02T13:48:06.141Z,15.30
2022-10-02T13:58:36.596Z,15.30
2022-10-02T14:09:04.976Z,15.10
2022-10-02T14:19:53.504Z,15.10
2022-10-02T14:30:04.860Z,15.20
2022-10-02T14:40:15.934Z,15.30
2022-10-02T14:50:37.277Z,15.30
2022-10-02T15:01:00.041Z,15.10
2022-10-02T15:11:08.784Z,15.20
2022-10-02T15:21:26.930Z,15.00
2022-10-02T15:31:41.777Z,15.00
2022-10-02T15:41:55.452Z,14.90
2022-10-02T15:52:11.614Z,14.80
2022-10-02T16:03:00.022Z,14.80
2022-10-02T16:13:34.787Z,14.70
2022-10-02T16:24:01.531Z,14.60
2022-10-02T16:34:18.936Z,14.50
2022-10-02T16:44:44.155Z,14.40
2022-10-02T16:54:54.299Z,14.30
2022-10-02T17:05:09.554Z,14.10
2022-10-02T17:15:21.989Z,13.90
2022-10-02T17:25:32.996Z,13.80
2022-10-02T17:35:48.392Z,13.70
2022-10-02T17:46:18.085Z,13.50
2022-10-02T17:56:36.156Z,13.40
2022-10-02T18:06:55.342Z,13.20
2022-10-02T18:17:15.456Z,13.10
2022-10-02T18:27:39.791Z,13.00
2022-10-02T18:38:13.497Z,12.90
2022-10-02T18:48:55.510Z,12.70
2022-10-02T18:59:15.068Z,12.50
2022-10-02T19:09:28.251Z,12.30
2022-10-02T19:19:32.888Z,12.20
2022-10-02T19:29:43.195Z,12.10
2022-10-02T19:39:54.087Z,12.10
2022-10-02T19:50:01.583Z,12.20
2022-10-02T20:00:08.690Z,12.20
2022-10-02T20:10:18.886Z,12.30
2022-10-02T20:20:22.677Z,12.30
2022-10-02T20:30:35.367Z,12.30
2022-10-02T20:40:45.979Z,12.30
2022-10-02T20:50:59.289Z,12.50
2022-10-02T21:01:19.130Z,12.40
2022-10-02T21:11:43.252Z,12.20
2022-10-02T21:22:21.517Z,12.10
2022-10-02T21:33:05.185Z,11.80
2022-10-02T21:43:52.973Z,11.70
2022-10-02T21:54:59.856Z,11.60
2022-10-02T22:05:43.352Z,11.30
2022-10-02T22:16:04.966Z,11.10
2022-10-02T22:26:26.014Z,10.90
2022-10-02T22:37:08.698Z,10.70
2022-10-02T22:47:22.408Z,10.60
2022-10-02T22:57:41.918Z,10.50
2022-10-02T23:07:52.491Z,10.30
2022-10-02T23:18:04.823Z,10.20
2022-10-02T23:28:16.560Z,10.00
2022-10-02T23:38:29.258Z,10.00
2022-10-02T23:48:34.025Z,9.90
2022-10-02T23:58:55.820Z,9.70
